Time;durP1;ratioP1;P1;durP2;ratioP2;P2;SDS_P1;SDS_P2;PMS_P1;PMS_P2;Temp;Humidity;BMP_temperature;BMP_pressure;BME280_temperature;BME280_humidity;BME280_pressure;Samples;Min_cycle;Max_cycle;Signal;HPM_P1;HPM_P2
2023/10/30 00:00:47;;;;;;;1.80;0.65;;;;;;;;;;5121800;27;41659;-65
2023/10/30 00:03:15;;;;;;;3.70;0.70;;;;;;;;;;5125278;27;40442;-65
2023/10/30 00:05:44;;;;;;;1.95;0.90;;;;;;;;;;5121503;27;41584;-65
2023/10/30 00:08:12;;;;;;;3.42;0.80;;;;;;;;;;5124980;27;40203;-65
2023/10/30 00:10:40;;;;;;;1.90;0.80;;;;;;;;;;5121518;27;42490;-66
2023/10/30 00:13:08;;;;;;;3.53;0.90;;;;;;;;;;5121923;27;42074;-65
2023/10/30 00:15:36;;;;;;;2.30;0.80;;;;;;;;;;5121829;27;40389;-65
2023/10/30 00:18:04;;;;;;;2.78;0.65;;;;;;;;;;5122302;27;42169;-65
2023/10/30 00:20:32;;;;;;;1.90;0.70;;;;;;;;;;5124183;27;41395;-65
2023/10/30 00:23:01;;;;;;;4.10;0.93;;;;;;;;;;5121903;27;39967;-65
2023/10/30 00:25:29;;;;;;;2.33;0.82;;;;;;;;;;5122630;27;41396;-65
2023/10/30 00:28:00;;;;;;;2.05;0.60;;;;;;;;;;5118420;27;40405;-62
2023/10/30 00:30:27;;;;;;;4.90;0.88;;;;;;;;;;5125113;27;42692;-62
2023/10/30 00:32:55;;;;;;;2.25;0.70;;;;;;;;;;5126008;27;41649;-62
2023/10/30 00:35:24;;;;;;;2.72;0.80;;;;;;;;;;5122444;27;40105;-62
2023/10/30 00:37:52;;;;;;;1.88;0.70;;;;;;;;;;5116582;27;42058;-62
2023/10/30 00:40:24;;;;;;;3.75;1.10;;;;;;;;;;5100927;27;41280;-62
2023/10/30 00:42:52;;;;;;;3.90;1.10;;;;;;;;;;5114036;27;41275;-62
2023/10/30 00:45:20;;;;;;;4.88;0.85;;;;;;;;;;5120509;27;42125;-62
2023/10/30 00:47:48;;;;;;;3.53;0.70;;;;;;;;;;5110842;27;40505;-62
2023/10/30 00:50:16;;;;;;;2.30;0.80;;;;;;;;;;5120776;27;41725;-62
2023/10/30 00:52:44;;;;;;;1.95;0.77;;;;;;;;;;5103808;27;41496;-62
2023/10/30 00:55:11;;;;;;;2.05;0.80;;;;;;;;;;5103500;27;39597;-63
2023/10/30 00:57:41;;;;;;;1.50;0.75;;;;;;;;;;5128607;27;42698;-62
2023/10/30 01:00:11;;;;;;;2.00;0.70;;;;;;;;;;5108529;27;40760;-62
2023/10/30 01:02:40;;;;;;;3.05;1.00;;;;;;;;;;5120989;27;40975;-62
2023/10/30 01:05:09;;;;;;;1.50;0.93;;;;;;;;;;5108746;27;40238;-62
2023/10/30 01:07:38;;;;;;;1.77;0.60;;;;;;;;;;5122562;27;43283;-62
2023/10/30 01:10:07;;;;;;;1.58;0.65;;;;;;;;;;5122074;27;39508;-62
2023/10/30 01:12:36;;;;;;;2.67;0.90;;;;;;;;;;5129395;27;42984;-62
2023/10/30 01:15:06;;;;;;;2.85;0.80;;;;;;;;;;5128848;27;40930;-62
2023/10/30 01:17:34;;;;;;;1.58;0.70;;;;;;;;;;5129622;27;41751;-62
2023/10/30 01:20:03;;;;;;;1.88;0.70;;;;;;;;;;5106364;27;41354;-62
2023/10/30 01:22:30;;;;;;;2.00;0.55;;;;;;;;;;5108715;28;41458;-62
2023/10/30 01:24:58;;;;;;;3.20;1.00;;;;;;;;;;5100034;27;42641;-62
2023/10/30 01:27:27;;;;;;;5.28;0.63;;;;;;;;;;5108549;27;42515;-62
2023/10/30 01:29:55;;;;;;;2.08;0.70;;;;;;;;;;5101514;27;40298;-62
2023/10/30 01:32:24;;;;;;;2.28;0.95;;;;;;;;;;5110000;28;41049;-62
2023/10/30 01:34:52;;;;;;;1.50;0.85;;;;;;;;;;5098295;28;40453;-62
2023/10/30 01:37:21;;;;;;;1.55;0.70;;;;;;;;;;5107680;27;41538;-62
2023/10/30 01:39:49;;;;;;;2.75;0.90;;;;;;;;;;5108428;28;42261;-62
2023/10/30 01:42:17;;;;;;;2.95;0.65;;;;;;;;;;5108747;28;40256;-62
2023/10/30 01:44:54;;;;;;;2.42;0.75;;;;;;;;;;5094606;28;41631;-62
2023/10/30 01:47:24;;;;;;;1.88;0.60;;;;;;;;;;5107613;27;41545;-62
2023/10/30 01:49:52;;;;;;;2.63;0.73;;;;;;;;;;5106734;27;39732;-62
2023/10/30 01:52:20;;;;;;;1.02;0.70;;;;;;;;;;5108797;27;41820;-63
2023/10/30 01:54:48;;;;;;;2.42;0.85;;;;;;;;;;5107404;27;42293;-62
2023/10/30 01:57:16;;;;;;;2.22;0.85;;;;;;;;;;5106367;27;40133;-62
2023/10/30 01:59:44;;;;;;;3.25;0.82;;;;;;;;;;5106441;27;40733;-62
2023/10/30 02:02:12;;;;;;;1.65;0.85;;;;;;;;;;5108140;27;40447;-62
2023/10/30 02:04:42;;;;;;;3.10;0.75;;;;;;;;;;5107992;27;41101;-62
2023/10/30 02:07:11;;;;;;;2.95;0.80;;;;;;;;;;5108619;27;41674;-62
2023/10/30 02:09:40;;;;;;;1.42;0.70;;;;;;;;;;5106072;27;39824;-63
2023/10/30 02:12:11;;;;;;;1.90;0.80;;;;;;;;;;5106308;27;41378;-62
2023/10/30 02:14:39;;;;;;;5.35;0.82;;;;;;;;;;5107610;27;43137;-62
2023/10/30 02:17:07;;;;;;;1.77;0.80;;;;;;;;;;5108152;27;42336;-62
2023/10/30 02:19:36;;;;;;;3.15;1.05;;;;;;;;;;5105474;27;40909;-61
2023/10/30 02:22:05;;;;;;;2.40;0.73;;;;;;;;;;5129013;27;41292;-61
2023/10/30 02:24:33;;;;;;;1.77;0.80;;;;;;;;;;5108347;27;41280;-61
2023/10/30 02:27:03;;;;;;;3.08;0.73;;;;;;;;;;5129141;27;42716;-62
2023/10/30 02:29:31;;;;;;;1.70;0.73;;;;;;;;;;5128201;27;41383;-61
2023/10/30 02:31:58;;;;;;;3.33;0.73;;;;;;;;;;5128148;27;42618;-61
2023/10/30 02:34:26;;;;;;;3.53;0.95;;;;;;;;;;5109284;27;40771;-61
2023/10/30 02:36:56;;;;;;;2.75;1.10;;;;;;;;;;5129027;27;40404;-61
2023/10/30 02:39:24;;;;;;;1.98;0.70;;;;;;;;;;5128106;27;42755;-61
2023/10/30 02:41:52;;;;;;;2.05;0.70;;;;;;;;;;5128739;27;40210;-63
2023/10/30 02:44:21;;;;;;;2.03;0.73;;;;;;;;;;5108555;27;39800;-61
2023/10/30 02:46:49;;;;;;;3.55;0.75;;;;;;;;;;5127581;27;42006;-61
2023/10/30 02:49:17;;;;;;;2.13;0.85;;;;;;;;;;5127771;27;40435;-61
2023/10/30 02:51:45;;;;;;;4.45;0.85;;;;;;;;;;5108434;27;40831;-61
2023/10/30 02:54:13;;;;;;;2.13;1.02;;;;;;;;;;5126520;27;42066;-61
2023/10/30 02:56:41;;;;;;;2.67;0.73;;;;;;;;;;5126473;27;40132;-61
2023/10/30 02:59:09;;;;;;;2.70;0.68;;;;;;;;;;5125596;27;42591;-61
2023/10/30 03:01:41;;;;;;;1.48;0.63;;;;;;;;;;5104804;27;39007;-61
2023/10/30 03:04:09;;;;;;;2.47;0.77;;;;;;;;;;5121896;27;41754;-61
2023/10/30 03:06:37;;;;;;;1.42;0.60;;;;;;;;;;5118846;27;42386;-61
2023/10/30 03:09:05;;;;;;;1.88;0.90;;;;;;;;;;5109341;27;40113;-61
2023/10/30 03:11:33;;;;;;;3.28;0.85;;;;;;;;;;5128558;27;41412;-61
2023/10/30 03:14:01;;;;;;;2.53;0.80;;;;;;;;;;5126093;27;41571;-61
2023/10/30 03:16:29;;;;;;;3.83;0.93;;;;;;;;;;5117730;27;40109;-61
2023/10/30 03:18:59;;;;;;;2.03;0.70;;;;;;;;;;5127072;27;41276;-61
2023/10/30 03:21:27;;;;;;;1.38;0.65;;;;;;;;;;5108059;27;41419;-61
2023/10/30 03:23:56;;;;;;;2.13;0.80;;;;;;;;;;5126914;27;41435;-61
2023/10/30 03:26:25;;;;;;;1.52;0.57;;;;;;;;;;5099273;27;40683;-61
2023/10/30 03:28:53;;;;;;;4.05;1.10;;;;;;;;;;5108819;27;39625;-61
2023/10/30 03:31:21;;;;;;;1.73;0.60;;;;;;;;;;5114086;27;41405;-61
2023/10/30 03:33:48;;;;;;;2.72;1.00;;;;;;;;;;5125703;27;42139;-61
2023/10/30 03:36:20;;;;;;;2.30;0.70;;;;;;;;;;5108938;27;40573;-61
2023/10/30 03:38:48;;;;;;;2.42;0.77;;;;;;;;;;5126936;27;42189;-61
2023/10/30 03:41:16;;;;;;;1.70;0.88;;;;;;;;;;5126096;27;41660;-61
2023/10/30 03:43:47;;;;;;;1.70;0.45;;;;;;;;;;5127461;27;41255;-61
2023/10/30 03:46:15;;;;;;;1.67;0.80;;;;;;;;;;5127534;27;43153;-61
2023/10/30 03:48:43;;;;;;;1.30;0.60;;;;;;;;;;5126118;27;40150;-62
2023/10/30 03:51:11;;;;;;;2.40;0.90;;;;;;;;;;5109324;27;40285;-62
2023/10/30 03:53:40;;;;;;;2.70;0.80;;;;;;;;;;5116514;27;41377;-62
2023/10/30 03:56:08;;;;;;;1.60;0.55;;;;;;;;;;5124129;27;40673;-61
2023/10/30 03:58:36;;;;;;;1.38;0.70;;;;;;;;;;5122468;27;42258;-61
2023/10/30 04:01:05;;;;;;;5.38;0.65;;;;;;;;;;5124155;27;42011;-61
2023/10/30 04:03:33;;;;;;;2.05;0.60;;;;;;;;;;5117600;27;40287;-61
2023/10/30 04:06:02;;;;;;;1.73;0.90;;;;;;;;;;5116017;27;42459;-61
2023/10/30 04:08:30;;;;;;;2.67;0.93;;;;;;;;;;5114799;27;39773;-61
2023/10/30 04:10:59;;;;;;;1.95;0.60;;;;;;;;;;5110331;27;42635;-61
2023/10/30 04:13:27;;;;;;;2.40;0.65;;;;;;;;;;5111782;27;41526;-61
2023/10/30 04:15:55;;;;;;;2.42;0.57;;;;;;;;;;5116684;27;40372;-61
2023/10/30 04:18:23;;;;;;;1.90;0.85;;;;;;;;;;5125748;27;41547;-62
2023/10/30 04:20:51;;;;;;;5.93;0.70;;;;;;;;;;5126399;27;41956;-61
2023/10/30 04:23:19;;;;;;;1.70;0.70;;;;;;;;;;5124130;27;40111;-61
2023/10/30 04:25:47;;;;;;;3.55;0.85;;;;;;;;;;5122332;27;42573;-61
2023/10/30 04:28:16;;;;;;;2.40;0.73;;;;;;;;;;5121788;27;40110;-62
2023/10/30 04:30:44;;;;;;;2.13;0.75;;;;;;;;;;5116306;27;41140;-62
2023/10/30 04:33:12;;;;;;;1.85;0.73;;;;;;;;;;5123122;27;42083;-62
2023/10/30 04:35:40;;;;;;;3.08;0.85;;;;;;;;;;5115312;27;40794;-62
2023/10/30 04:38:08;;;;;;;2.10;0.80;;;;;;;;;;5114551;27;42541;-62
2023/10/30 04:40:36;;;;;;;1.40;0.52;;;;;;;;;;5123414;27;42004;-62
2023/10/30 04:43:04;;;;;;;1.83;0.73;;;;;;;;;;5128383;27;40476;-61
2023/10/30 04:45:33;;;;;;;1.05;0.60;;;;;;;;;;5126024;27;41794;-62
2023/10/30 04:48:01;;;;;;;2.53;1.00;;;;;;;;;;5129984;27;41671;-62
2023/10/30 04:50:29;;;;;;;3.25;0.75;;;;;;;;;;5129872;27;41814;-62
2023/10/30 04:52:57;;;;;;;1.33;0.70;;;;;;;;;;5129079;27;42033;-62
2023/10/30 04:55:26;;;;;;;2.15;0.63;;;;;;;;;;5129755;27;39746;-62
2023/10/30 04:57:54;;;;;;;1.02;0.65;;;;;;;;;;5128873;27;41382;-62
2023/10/30 05:00:21;;;;;;;1.15;0.50;;;;;;;;;;5130746;27;42427;-62
2023/10/30 05:02:51;;;;;;;3.95;0.70;;;;;;;;;;5129802;27;39987;-62
2023/10/30 05:05:19;;;;;;;3.20;0.73;;;;;;;;;;5128449;27;41656;-62
2023/10/30 05:07:47;;;;;;;3.60;0.75;;;;;;;;;;5128779;27;43156;-62
2023/10/30 05:10:15;;;;;;;1.20;0.60;;;;;;;;;;5129181;27;40740;-62
2023/10/30 05:12:43;;;;;;;1.52;0.60;;;;;;;;;;5127052;27;43004;-62
2023/10/30 05:15:11;;;;;;;2.28;0.88;;;;;;;;;;5127800;27;40586;-62
2023/10/30 05:17:39;;;;;;;4.47;1.02;;;;;;;;;;5128514;27;41659;-62
2023/10/30 05:20:10;;;;;;;1.23;0.68;;;;;;;;;;5118445;27;43043;-62
2023/10/30 05:22:38;;;;;;;2.63;0.60;;;;;;;;;;5110630;27;39878;-62
2023/10/30 05:25:06;;;;;;;2.72;1.00;;;;;;;;;;5126576;27;42768;-62
2023/10/30 05:27:34;;;;;;;3.50;0.70;;;;;;;;;;5115447;27;42912;-62
2023/10/30 05:30:02;;;;;;;4.15;1.42;;;;;;;;;;5119858;27;40123;-62
2023/10/30 05:32:30;;;;;;;1.42;0.70;;;;;;;;;;5123468;27;41751;-62
2023/10/30 05:34:59;;;;;;;1.60;0.52;;;;;;;;;;5128195;27;40043;-62
2023/10/30 05:37:28;;;;;;;2.45;0.60;;;;;;;;;;5128854;27;42335;-62
2023/10/30 05:39:56;;;;;;;2.58;0.60;;;;;;;;;;5128106;27;42257;-62
2023/10/30 05:42:24;;;;;;;2.35;0.60;;;;;;;;;;5129098;27;40304;-62
2023/10/30 05:44:52;;;;;;;3.70;0.95;;;;;;;;;;5128012;27;42625;-62
2023/10/30 05:47:20;;;;;;;2.17;0.55;;;;;;;;;;5128673;27;43130;-62
2023/10/30 05:49:48;;;;;;;1.77;0.60;;;;;;;;;;5128106;27;40142;-62
2023/10/30 05:52:16;;;;;;;3.20;0.93;;;;;;;;;;5127384;27;43775;-62
2023/10/30 05:54:45;;;;;;;2.33;0.70;;;;;;;;;;5127163;27;42292;-62
2023/10/30 05:57:15;;;;;;;4.65;0.85;;;;;;;;;;5116892;27;41250;-62
2023/10/30 05:59:43;;;;;;;1.98;0.60;;;;;;;;;;5127295;27;43200;-62
2023/10/30 06:02:11;;;;;;;2.60;0.63;;;;;;;;;;5128018;27;40330;-62
2023/10/30 06:04:39;;;;;;;2.05;0.65;;;;;;;;;;5128392;27;41396;-62
2023/10/30 06:07:07;;;;;;;2.03;0.60;;;;;;;;;;5128647;27;42488;-62
2023/10/30 06:09:35;;;;;;;2.20;0.57;;;;;;;;;;5127036;27;40357;-62
2023/10/30 06:12:06;;;;;;;3.70;0.77;;;;;;;;;;5128448;27;42063;-62
2023/10/30 06:14:33;;;;;;;3.30;0.63;;;;;;;;;;5128600;27;41915;-62
2023/10/30 06:17:02;;;;;;;1.42;0.60;;;;;;;;;;5127886;27;39960;-62
2023/10/30 06:19:30;;;;;;;2.53;0.80;;;;;;;;;;5123254;27;42448;-62
2023/10/30 06:21:58;;;;;;;1.98;0.60;;;;;;;;;;5100451;27;38779;-62
2023/10/30 06:24:26;;;;;;;1.48;0.57;;;;;;;;;;5121841;27;41656;-62
2023/10/30 06:26:54;;;;;;;1.58;0.50;;;;;;;;;;5128248;27;41518;-62
2023/10/30 06:29:23;;;;;;;1.48;0.57;;;;;;;;;;5127525;27;41253;-62
2023/10/30 06:31:51;;;;;;;1.10;0.60;;;;;;;;;;5128057;27;41724;-62
2023/10/30 06:34:19;;;;;;;2.53;0.85;;;;;;;;;;5128029;27;42148;-62
2023/10/30 06:36:47;;;;;;;2.03;0.70;;;;;;;;;;5115475;27;41378;-62
2023/10/30 06:39:20;;;;;;;2.58;0.60;;;;;;;;;;5127727;27;41814;-62
2023/10/30 06:41:54;;;;;;;1.30;0.50;;;;;;;;;;5127403;27;40380;-62
2023/10/30 06:44:23;;;;;;;2.08;0.70;;;;;;;;;;5127481;27;42310;-62
2023/10/30 06:46:51;;;;;;;3.03;0.70;;;;;;;;;;5127161;27;42517;-62
2023/10/30 06:49:22;;;;;;;1.50;0.60;;;;;;;;;;5127912;27;40804;-62
2023/10/30 06:51:49;;;;;;;1.60;0.73;;;;;;;;;;5124724;27;41477;-62
2023/10/30 06:54:17;;;;;;;1.50;0.45;;;;;;;;;;5128730;27;41818;-62
2023/10/30 06:56:45;;;;;;;1.73;0.70;;;;;;;;;;5127267;27;40114;-62
2023/10/30 06:59:14;;;;;;;1.85;0.57;;;;;;;;;;5126454;27;41328;-62
2023/10/30 07:01:43;;;;;;;2.20;0.88;;;;;;;;;;5122848;27;40019;-62
2023/10/30 07:04:11;;;;;;;3.08;0.90;;;;;;;;;;5128005;27;41974;-62
2023/10/30 07:06:40;;;;;;;2.00;0.55;;;;;;;;;;5122498;27;41592;-62
2023/10/30 07:09:08;;;;;;;2.22;0.75;;;;;;;;;;5123285;27;40880;-62
2023/10/30 07:11:36;;;;;;;1.77;0.57;;;;;;;;;;5117222;27;41795;-62
2023/10/30 07:14:04;;;;;;;2.35;0.90;;;;;;;;;;5126921;27;41492;-62
2023/10/30 07:16:32;;;;;;;1.77;0.60;;;;;;;;;;5126733;27;41086;-62
2023/10/30 07:19:01;;;;;;;1.60;0.82;;;;;;;;;;5125437;27;41794;-62
2023/10/30 07:21:29;;;;;;;2.75;0.57;;;;;;;;;;5128133;27;42203;-62
2023/10/30 07:23:57;;;;;;;2.80;1.10;;;;;;;;;;5126328;27;42077;-61
2023/10/30 07:26:25;;;;;;;2.40;0.65;;;;;;;;;;5126892;27;42756;-62
2023/10/30 07:28:54;;;;;;;1.80;0.55;;;;;;;;;;5116573;27;40426;-62
2023/10/30 07:31:22;;;;;;;1.63;0.50;;;;;;;;;;5114761;27;41195;-66
2023/10/30 07:33:50;;;;;;;2.67;0.70;;;;;;;;;;5121408;27;41649;-63
2023/10/30 07:36:19;;;;;;;3.58;1.00;;;;;;;;;;5120647;27;39916;-63
2023/10/30 07:38:48;;;;;;;1.58;0.57;;;;;;;;;;5117077;27;41608;-64
2023/10/30 07:41:16;;;;;;;3.80;0.77;;;;;;;;;;5119644;27;41901;-64
2023/10/30 07:43:44;;;;;;;4.50;1.00;;;;;;;;;;5114726;27;42169;-64
2023/10/30 07:46:13;;;;;;;5.43;0.73;;;;;;;;;;5114505;27;40327;-64
2023/10/30 07:48:41;;;;;;;1.77;0.70;;;;;;;;;;5109769;27;40159;-64
2023/10/30 07:51:09;;;;;;;3.00;0.60;;;;;;;;;;5124090;27;41614;-64
2023/10/30 07:53:38;;;;;;;2.53;0.70;;;;;;;;;;5110481;27;41525;-64
2023/10/30 07:56:06;;;;;;;3.30;0.90;;;;;;;;;;5115286;27;41341;-64
2023/10/30 07:58:34;;;;;;;4.47;0.93;;;;;;;;;;5123577;27;41673;-64
2023/10/30 08:01:03;;;;;;;5.43;0.98;;;;;;;;;;5120832;27;42314;-64
2023/10/30 08:03:31;;;;;;;2.90;0.80;;;;;;;;;;5123009;27;41020;-65
2023/10/30 08:06:00;;;;;;;2.63;0.80;;;;;;;;;;5119921;27;42519;-64
2023/10/30 08:08:28;;;;;;;3.30;0.70;;;;;;;;;;5108206;27;41109;-65
2023/10/30 08:10:58;;;;;;;6.85;0.80;;;;;;;;;;5114477;27;42092;-65
2023/10/30 08:13:26;;;;;;;4.50;1.08;;;;;;;;;;5115267;27;42136;-66
2023/10/30 08:15:54;;;;;;;5.38;0.90;;;;;;;;;;5115947;27;40318;-65
2023/10/30 08:18:22;;;;;;;1.73;0.68;;;;;;;;;;5125241;27;41201;-65
2023/10/30 08:20:50;;;;;;;6.85;1.20;;;;;;;;;;5125904;27;42090;-66
2023/10/30 08:23:22;;;;;;;4.15;0.93;;;;;;;;;;5124186;27;39758;-65
2023/10/30 08:25:50;;;;;;;2.75;0.98;;;;;;;;;;5121273;27;41333;-65
2023/10/30 08:28:19;;;;;;;2.22;0.90;;;;;;;;;;5126944;27;32591;-64
2023/10/30 08:30:47;;;;;;;5.82;1.20;;;;;;;;;;5112966;27;41750;-65
2023/10/30 08:33:15;;;;;;;4.80;1.25;;;;;;;;;;5126910;27;41753;-65
2023/10/30 08:35:46;;;;;;;3.47;0.90;;;;;;;;;;5115969;27;40478;-65
2023/10/30 08:38:14;;;;;;;2.90;0.98;;;;;;;;;;5115639;27;40977;-65
2023/10/30 08:40:42;;;;;;;8.50;1.05;;;;;;;;;;5125980;27;41958;-65
2023/10/30 08:43:10;;;;;;;4.10;0.80;;;;;;;;;;5120617;27;39542;-65
2023/10/30 08:45:39;;;;;;;2.67;0.98;;;;;;;;;;5124397;27;41705;-65
2023/10/30 08:48:07;;;;;;;4.68;0.80;;;;;;;;;;5125569;27;41575;-61
2023/10/30 08:50:46;;;;;;;5.72;0.90;;;;;;;;;;5124311;27;41675;-63
2023/10/30 08:53:15;;;;;;;7.60;1.13;;;;;;;;;;5118782;27;42022;-63
2023/10/30 08:55:43;;;;;;;2.92;0.65;;;;;;;;;;5123185;27;40080;-63
2023/10/30 08:58:11;;;;;;;2.67;0.85;;;;;;;;;;5117370;27;41469;-63
2023/10/30 09:00:42;;;;;;;6.00;1.23;;;;;;;;;;5121646;27;42018;-63
2023/10/30 09:03:12;;;;;;;5.45;1.10;;;;;;;;;;5113474;27;39775;-64
2023/10/30 09:05:41;;;;;;;4.93;1.05;;;;;;;;;;5125959;27;41271;-64
2023/10/30 09:08:09;;;;;;;3.83;0.60;;;;;;;;;;5119210;27;42712;-62
2023/10/30 09:10:38;;;;;;;6.82;1.40;;;;;;;;;;5127587;27;40005;-61
2023/10/30 09:13:06;;;;;;;5.68;1.08;;;;;;;;;;5125421;27;41680;-62
2023/10/30 09:15:34;;;;;;;5.57;0.90;;;;;;;;;;5121509;27;40969;-63
2023/10/30 09:18:04;;;;;;;9.27;1.00;;;;;;;;;;5128290;27;41445;-62
2023/10/30 09:20:31;;;;;;;6.32;1.60;;;;;;;;;;5124484;27;42442;-63
2023/10/30 09:23:00;;;;;;;8.85;1.15;;;;;;;;;;5128405;27;40522;-62
2023/10/30 09:25:28;;;;;;;5.05;0.90;;;;;;;;;;5124806;27;42161;-63
2023/10/30 09:27:55;;;;;;;4.30;1.08;;;;;;;;;;5128205;27;43142;-62
2023/10/30 09:30:29;;;;;;;5.30;0.85;;;;;;;;;;5128321;27;41505;-62
2023/10/30 09:32:57;;;;;;;4.40;1.17;;;;;;;;;;5120607;27;41791;-62
2023/10/30 09:35:29;;;;;;;2.85;0.70;;;;;;;;;;5127924;27;39973;-63
2023/10/30 09:37:57;;;;;;;3.58;1.08;;;;;;;;;;5122026;27;41745;-63
2023/10/30 09:40:26;;;;;;;3.88;1.02;;;;;;;;;;5117505;27;42198;-62
2023/10/30 09:42:54;;;;;;;3.90;1.10;;;;;;;;;;5112529;27;40244;-62
2023/10/30 09:45:23;;;;;;;3.97;0.93;;;;;;;;;;5123320;27;42243;-62
2023/10/30 09:47:54;;;;;;;3.53;0.90;;;;;;;;;;5120498;27;43246;-63
2023/10/30 09:50:22;;;;;;;2.88;0.82;;;;;;;;;;5125003;27;40665;-62
2023/10/30 09:52:52;;;;;;;5.05;1.35;;;;;;;;;;5121151;27;42064;-62
2023/10/30 09:55:20;;;;;;;4.28;1.10;;;;;;;;;;5126992;27;43228;-62
2023/10/30 09:57:48;;;;;;;2.58;0.90;;;;;;;;;;5119184;27;40450;-63
2023/10/30 10:00:16;;;;;;;4.13;1.10;;;;;;;;;;5113708;27;42659;-63
2023/10/30 10:02:47;;;;;;;5.63;1.35;;;;;;;;;;5127178;27;40428;-63
2023/10/30 10:05:16;;;;;;;2.75;0.90;;;;;;;;;;5127427;27;41141;-62
2023/10/30 10:07:44;;;;;;;4.18;0.63;;;;;;;;;;5126349;27;41956;-63
2023/10/30 10:10:18;;;;;;;2.78;1.00;;;;;;;;;;5119379;27;40233;-63
2023/10/30 10:12:49;;;;;;;3.42;1.20;;;;;;;;;;5113801;27;42114;-62
2023/10/30 10:15:20;;;;;;;2.55;1.02;;;;;;;;;;5110449;27;44239;-63
2023/10/30 10:17:49;;;;;;;2.88;0.70;;;;;;;;;;5112785;27;40746;-62
2023/10/30 10:20:21;;;;;;;5.95;1.63;;;;;;;;;;5127641;27;41937;-62
2023/10/30 10:22:49;;;;;;;3.33;1.15;;;;;;;;;;5111628;27;39761;-62
2023/10/30 10:25:19;;;;;;;8.45;1.15;;;;;;;;;;5115828;27;41276;-63
2023/10/30 10:27:48;;;;;;;4.65;1.00;;;;;;;;;;5124980;27;42170;-63
2023/10/30 10:30:18;;;;;;;4.00;0.80;;;;;;;;;;5124559;27;40998;-62
2023/10/30 10:32:47;;;;;;;7.00;1.30;;;;;;;;;;5125438;27;20254;-63
2023/10/30 10:35:15;;;;;;;3.00;0.90;;;;;;;;;;5127313;27;42564;-65
2023/10/30 10:37:43;;;;;;;5.32;1.02;;;;;;;;;;5126124;27;41396;-63
2023/10/30 10:40:13;;;;;;;4.38;0.93;;;;;;;;;;5127787;27;43177;-63
2023/10/30 10:42:42;;;;;;;9.80;1.10;;;;;;;;;;5125423;27;40943;-63
2023/10/30 10:45:10;;;;;;;6.30;1.10;;;;;;;;;;5120491;27;41557;-64
2023/10/30 10:47:38;;;;;;;11.07;1.42;;;;;;;;;;5120691;27;42412;-64
2023/10/30 10:50:06;;;;;;;2.72;0.70;;;;;;;;;;5127245;27;40153;-64
2023/10/30 10:52:34;;;;;;;8.82;1.10;;;;;;;;;;5127647;27;41654;-64
2023/10/30 10:55:03;;;;;;;6.25;1.00;;;;;;;;;;5126223;27;41629;-64
2023/10/30 10:57:32;;;;;;;4.95;1.20;;;;;;;;;;5126265;27;40548;-64
2023/10/30 11:00:06;;;;;;;5.55;1.10;;;;;;;;;;5126239;27;41238;-64
2023/10/30 11:02:34;;;;;;;2.33;0.98;;;;;;;;;;5117890;27;42260;-65
2023/10/30 11:05:03;;;;;;;7.38;0.93;;;;;;;;;;5125242;27;41545;-65
2023/10/30 11:07:31;;;;;;;4.93;1.27;;;;;;;;;;5114419;27;42684;-64
2023/10/30 11:10:03;;;;;;;6.32;0.93;;;;;;;;;;5108471;27;40430;-65
2023/10/30 11:12:44;;;;;;;5.78;0.75;;;;;;;;;;5108850;27;42730;-64
2023/10/30 11:15:15;;;;;;;5.88;1.10;;;;;;;;;;5107900;27;41887;-64
2023/10/30 11:17:45;;;;;;;10.35;1.00;;;;;;;;;;5108645;27;41062;-65
2023/10/30 11:20:13;;;;;;;5.70;0.90;;;;;;;;;;5110968;27;42684;-64
2023/10/30 11:22:41;;;;;;;3.25;1.00;;;;;;;;;;5125105;27;41606;-65
2023/10/30 11:25:24;;;;;;;6.00;0.98;;;;;;;;;;5117646;27;41716;-64
2023/10/30 11:27:52;;;;;;;4.25;0.95;;;;;;;;;;5123965;27;42181;-64
2023/10/30 11:30:24;;;;;;;4.35;1.00;;;;;;;;;;5111054;27;40374;-65
2023/10/30 11:32:53;;;;;;;3.70;0.90;;;;;;;;;;5110838;27;41286;-65
2023/10/30 11:35:22;;;;;;;3.95;1.08;;;;;;;;;;5107880;27;42165;-65
2023/10/30 11:37:50;;;;;;;4.70;0.80;;;;;;;;;;5109738;27;40801;-64
2023/10/30 11:40:18;;;;;;;3.00;0.75;;;;;;;;;;5119402;27;42349;-66
2023/10/30 11:42:46;;;;;;;3.53;0.80;;;;;;;;;;5110375;27;42976;-66
2023/10/30 11:45:22;;;;;;;3.53;1.13;;;;;;;;;;5108793;27;39823;-65
2023/10/30 11:47:57;;;;;;;2.72;1.02;;;;;;;;;;5106076;27;42475;-65
2023/10/30 11:50:26;;;;;;;3.40;1.02;;;;;;;;;;5122703;27;40453;-66
2023/10/30 11:52:55;;;;;;;6.40;0.88;;;;;;;;;;5123956;27;42125;-66
2023/10/30 11:55:23;;;;;;;4.65;0.77;;;;;;;;;;5125675;27;42065;-67
2023/10/30 11:57:51;;;;;;;11.38;0.60;;;;;;;;;;5126794;27;39802;-67
2023/10/30 12:00:20;;;;;;;5.93;1.20;;;;;;;;;;5126157;27;41761;-63
2023/10/30 12:02:47;;;;;;;4.45;1.00;;;;;;;;;;5115410;27;41910;-63
2023/10/30 12:05:17;;;;;;;6.22;1.10;;;;;;;;;;5118024;27;41614;-62
2023/10/30 12:07:45;;;;;;;2.67;0.75;;;;;;;;;;5112458;27;41274;-64
2023/10/30 12:10:13;;;;;;;6.40;1.15;;;;;;;;;;5118950;27;39902;-64
2023/10/30 12:12:41;;;;;;;3.38;0.80;;;;;;;;;;5111382;27;40862;-64
2023/10/30 12:15:09;;;;;;;2.92;1.20;;;;;;;;;;5113261;27;43182;-64
2023/10/30 12:17:37;;;;;;;4.63;0.93;;;;;;;;;;5123961;27;41922;-64
2023/10/30 12:20:06;;;;;;;4.70;1.08;;;;;;;;;;5124368;27;40923;-64
2023/10/30 12:22:39;;;;;;;2.92;1.00;;;;;;;;;;5110747;27;41727;-64
2023/10/30 12:25:08;;;;;;;4.38;1.00;;;;;;;;;;5117063;27;40633;-64
2023/10/30 12:27:36;;;;;;;4.47;0.90;;;;;;;;;;5111799;27;41143;-68
2023/10/30 12:30:10;;;;;;;2.33;0.90;;;;;;;;;;5108974;27;41998;-64
2023/10/30 12:32:38;;;;;;;8.27;1.30;;;;;;;;;;5121456;27;41794;-64
2023/10/30 12:35:12;;;;;;;5.80;1.02;;;;;;;;;;5125298;27;41573;-64
2023/10/30 12:37:42;;;;;;;6.60;0.98;;;;;;;;;;5121615;27;39615;-64
2023/10/30 12:40:10;;;;;;;3.30;1.10;;;;;;;;;;5123713;27;41351;-64
2023/10/30 12:42:38;;;;;;;10.38;1.23;;;;;;;;;;5115280;27;42660;-64
2023/10/30 12:45:07;;;;;;;5.25;1.00;;;;;;;;;;5129214;27;40735;-64
2023/10/30 12:47:35;;;;;;;5.75;1.00;;;;;;;;;;5124300;27;41302;-64
2023/10/30 12:50:04;;;;;;;2.50;0.70;;;;;;;;;;5122961;27;42258;-65
2023/10/30 12:52:32;;;;;;;5.20;0.95;;;;;;;;;;5129180;27;41338;-64
2023/10/30 12:55:01;;;;;;;3.30;0.82;;;;;;;;;;5117915;27;43211;-64
2023/10/30 12:57:29;;;;;;;2.25;0.88;;;;;;;;;;5121318;27;41337;-65
2023/10/30 12:59:57;;;;;;;2.53;0.73;;;;;;;;;;5103555;27;42853;-62
2023/10/30 13:02:25;;;;;;;4.60;1.23;;;;;;;;;;5126891;27;42256;-62
2023/10/30 13:04:53;;;;;;;5.47;1.10;;;;;;;;;;5124020;27;40283;-63
2023/10/30 13:07:21;;;;;;;4.25;0.88;;;;;;;;;;5124825;27;41205;-63
2023/10/30 13:09:49;;;;;;;4.07;1.00;;;;;;;;;;5124805;27;43075;-63
2023/10/30 13:12:19;;;;;;;4.43;1.30;;;;;;;;;;5121344;27;40651;-63
2023/10/30 13:14:47;;;;;;;2.33;0.73;;;;;;;;;;5119273;27;41971;-63
2023/10/30 13:17:16;;;;;;;4.65;1.08;;;;;;;;;;5126770;27;39860;-63
2023/10/30 13:19:44;;;;;;;2.65;1.00;;;;;;;;;;5124499;27;41829;-63
2023/10/30 13:22:12;;;;;;;3.33;0.98;;;;;;;;;;5126401;27;42070;-63
2023/10/30 13:24:41;;;;;;;4.60;1.00;;;;;;;;;;5123598;27;41336;-63
2023/10/30 13:27:11;;;;;;;3.28;0.77;;;;;;;;;;5126701;27;42238;-63
2023/10/30 13:29:40;;;;;;;9.90;1.33;;;;;;;;;;5123877;27;42276;-65
2023/10/30 13:32:08;;;;;;;7.43;1.55;;;;;;;;;;5125817;27;42055;-64
2023/10/30 13:34:39;;;;;;;5.90;1.00;;;;;;;;;;5124679;27;41519;-64
2023/10/30 13:37:08;;;;;;;6.13;1.60;;;;;;;;;;5121070;27;40093;-63
2023/10/30 13:39:36;;;;;;;6.35;1.00;;;;;;;;;;5117201;27;42381;-63
2023/10/30 13:42:04;;;;;;;8.05;1.23;;;;;;;;;;5125615;27;43102;-64
2023/10/30 13:44:32;;;;;;;7.15;1.10;;;;;;;;;;5123938;27;40458;-66
2023/10/30 13:47:01;;;;;;;6.28;0.95;;;;;;;;;;5122742;27;41152;-66
2023/10/30 13:49:29;;;;;;;9.50;1.08;;;;;;;;;;5123912;27;42218;-66
2023/10/30 13:51:57;;;;;;;4.43;1.10;;;;;;;;;;5124366;27;41081;-66
2023/10/30 13:54:25;;;;;;;3.78;0.98;;;;;;;;;;5124241;27;42244;-66
2023/10/30 13:56:53;;;;;;;5.35;1.17;;;;;;;;;;5126585;27;41427;-66
2023/10/30 13:59:22;;;;;;;6.40;1.15;;;;;;;;;;5121517;27;42562;-66
2023/10/30 14:01:50;;;;;;;5.45;1.23;;;;;;;;;;5121494;27;43814;-66
2023/10/30 14:04:20;;;;;;;3.78;0.93;;;;;;;;;;5118491;27;39962;-65
2023/10/30 14:06:48;;;;;;;2.72;1.00;;;;;;;;;;5123925;27;42737;-68
2023/10/30 14:09:16;;;;;;;4.03;1.08;;;;;;;;;;5124815;27;42154;-66
2023/10/30 14:11:45;;;;;;;3.28;0.95;;;;;;;;;;5114546;27;39263;-63
2023/10/30 14:14:13;;;;;;;3.28;1.00;;;;;;;;;;5118815;27;41268;-63
2023/10/30 14:16:40;;;;;;;4.47;1.10;;;;;;;;;;5119373;27;41439;-65
2023/10/30 14:19:08;;;;;;;3.05;1.00;;;;;;;;;;5121180;27;40360;-63
2023/10/30 14:21:38;;;;;;;5.05;1.15;;;;;;;;;;5118372;27;43175;-62
2023/10/30 14:24:09;;;;;;;3.88;1.25;;;;;;;;;;5121406;27;40838;-63
2023/10/30 14:26:39;;;;;;;4.10;0.90;;;;;;;;;;5116017;27;41673;-63
2023/10/30 14:29:07;;;;;;;4.20;0.98;;;;;;;;;;5118659;27;42068;-63
2023/10/30 14:31:35;;;;;;;5.43;0.82;;;;;;;;;;5116156;27;40171;-63
2023/10/30 14:34:03;;;;;;;4.28;0.90;;;;;;;;;;5120024;27;41915;-63
2023/10/30 14:36:31;;;;;;;6.90;1.02;;;;;;;;;;5115316;27;41973;-65
2023/10/30 14:39:00;;;;;;;2.60;0.80;;;;;;;;;;5120915;27;40402;-63
2023/10/30 14:41:30;;;;;;;2.15;1.00;;;;;;;;;;5119564;27;42189;-64
2023/10/30 14:43:59;;;;;;;2.65;1.02;;;;;;;;;;5115536;27;39726;-64
2023/10/30 14:46:27;;;;;;;7.50;0.90;;;;;;;;;;5121507;27;41118;-64
2023/10/30 14:48:57;;;;;;;5.47;0.98;;;;;;;;;;5117847;27;43722;-64
2023/10/30 14:51:25;;;;;;;3.08;0.85;;;;;;;;;;5115784;27;41091;-63